Time;durP1;ratioP1;P1;durP2;ratioP2;P2;SDS_P1;SDS_P2;PMS_P1;PMS_P2;Temp;Humidity;BMP_temperature;BMP_pressure;BME280_temperature;BME280_humidity;BME280_pressure;Samples;Min_cycle;Max_cycle;Signal;HPM_P1;HPM_P2
2023/04/19 00:01:34;;;;;;;14.60;3.83;;;20.70;99.90;;;;;;4948808;29;20232;-78
2023/04/19 00:04:07;;;;;;;9.10;2.30;;;20.70;99.90;;;;;;4953627;28;20232;-78
2023/04/19 00:06:39;;;;;;;9.93;2.28;;;20.60;99.90;;;;;;4953628;29;20300;-79
2023/04/19 00:09:11;;;;;;;6.15;1.60;;;20.60;99.90;;;;;;4952432;28;20205;-79
2023/04/19 00:11:42;;;;;;;7.25;1.60;;;20.60;99.90;;;;;;4952065;28;20200;-78
2023/04/19 00:14:13;;;;;;;6.90;1.50;;;20.70;99.90;;;;;;4954578;29;20205;-81
2023/04/19 00:16:46;;;;;;;9.65;1.98;;;20.90;99.90;;;;;;4953717;29;20208;-79
2023/04/19 00:19:17;;;;;;;7.60;1.60;;;21.00;99.90;;;;;;4943465;29;20201;-78
2023/04/19 00:21:48;;;;;;;7.47;1.02;;;21.10;99.90;;;;;;4953369;28;20571;-79
2023/04/19 00:24:20;;;;;;;6.55;1.48;;;21.20;99.90;;;;;;4954033;28;20205;-79
2023/04/19 00:26:51;;;;;;;5.32;1.17;;;21.10;99.90;;;;;;4953229;28;20585;-79
2023/04/19 00:29:22;;;;;;;6.85;2.88;;;21.10;99.90;;;;;;4954448;28;20200;-78
2023/04/19 00:31:55;;;;;;;7.25;2.40;;;21.10;99.90;;;;;;4955509;29;20204;-78
2023/04/19 00:34:26;;;;;;;5.53;1.50;;;21.00;99.90;;;;;;4955134;29;20204;-79
2023/04/19 00:36:57;;;;;;;6.95;1.35;;;21.00;99.90;;;;;;4953644;29;20200;-79
2023/04/19 00:39:28;;;;;;;3.03;1.10;;;21.00;99.90;;;;;;4952939;29;20208;-79
2023/04/19 00:42:00;;;;;;;6.13;1.30;;;21.20;99.90;;;;;;4953847;28;20200;-78
2023/04/19 00:44:31;;;;;;;6.65;1.15;;;21.30;99.90;;;;;;4951711;28;20204;-79
2023/04/19 00:47:04;;;;;;;11.40;1.77;;;21.60;99.90;;;;;;4953911;28;20221;-79
2023/04/19 00:49:35;;;;;;;6.35;1.23;;;21.70;99.90;;;;;;4953112;29;20197;-79
2023/04/19 00:52:07;;;;;;;9.43;1.52;;;21.80;99.90;;;;;;4955087;29;20197;-80
2023/04/19 00:54:40;;;;;;;2.95;1.02;;;22.00;99.90;;;;;;4952070;28;20692;-79
2023/04/19 00:57:11;;;;;;;6.03;1.42;;;22.10;99.90;;;;;;4951769;28;20215;-78
2023/04/19 00:59:42;;;;;;;7.38;1.25;;;22.20;99.90;;;;;;4954739;29;20204;-78
2023/04/19 01:02:15;;;;;;;7.75;1.33;;;22.40;99.90;;;;;;4948960;29;20240;-78
2023/04/19 01:04:46;;;;;;;5.97;1.48;;;22.30;99.90;;;;;;4953059;28;20221;-78
2023/04/19 01:07:17;;;;;;;3.75;1.15;;;22.40;99.90;;;;;;4956746;29;20208;-78
2023/04/19 01:09:49;;;;;;;4.22;0.90;;;22.40;99.90;;;;;;4956502;29;20200;-78
2023/04/19 01:12:20;;;;;;;7.63;1.23;;;22.50;99.90;;;;;;4956363;28;20672;-78
2023/04/19 01:14:51;;;;;;;9.02;1.60;;;22.60;99.90;;;;;;4957009;28;20316;-78
2023/04/19 01:17:25;;;;;;;6.35;1.30;;;22.60;99.90;;;;;;4954290;29;20202;-79
2023/04/19 01:20:02;;;;;;;10.48;1.40;;;22.80;99.90;;;;;;4952305;28;20201;-78
2023/04/19 01:22:36;;;;;;;6.50;1.30;;;22.90;99.90;;;;;;4958661;29;20672;-77
2023/04/19 01:25:08;;;;;;;6.57;1.23;;;23.00;99.90;;;;;;4959064;29;20204;-77
2023/04/19 01:27:39;;;;;;;5.88;1.27;;;23.00;99.90;;;;;;4949447;28;20203;-78
2023/04/19 01:30:11;;;;;;;5.65;1.10;;;23.10;99.90;;;;;;4958499;29;20653;-79
2023/04/19 01:32:42;;;;;;;6.25;0.93;;;23.20;99.90;;;;;;4951423;28;20252;-80
2023/04/19 01:35:13;;;;;;;5.22;0.90;;;23.30;99.90;;;;;;4956578;29;20295;-78
2023/04/19 01:37:47;;;;;;;5.88;1.40;;;23.40;99.90;;;;;;4958632;28;20208;-79
2023/04/19 01:40:18;;;;;;;4.13;1.17;;;23.40;99.90;;;;;;4956481;28;20228;-79
2023/04/19 01:42:49;;;;;;;4.53;1.00;;;23.50;99.90;;;;;;4958592;29;20196;-79
2023/04/19 01:45:20;;;;;;;7.05;1.25;;;23.70;99.90;;;;;;4949338;29;20205;-79
2023/04/19 01:47:51;;;;;;;6.30;0.98;;;23.80;99.90;;;;;;4958037;28;20189;-78
2023/04/19 01:50:23;;;;;;;8.85;2.35;;;23.90;99.90;;;;;;4958221;28;20196;-77
2023/04/19 01:52:56;;;;;;;6.32;2.00;;;24.00;99.90;;;;;;4958321;29;20649;-78
2023/04/19 01:55:27;;;;;;;2.53;0.77;;;24.10;99.90;;;;;;4957681;28;20231;-79
2023/04/19 01:57:58;;;;;;;3.95;1.00;;;24.20;99.90;;;;;;4954911;28;20204;-79
2023/04/19 02:00:29;;;;;;;3.25;0.70;;;24.30;99.90;;;;;;4953132;29;20224;-79
2023/04/19 02:03:00;;;;;;;4.35;0.88;;;24.30;99.90;;;;;;4955875;28;20326;-79
2023/04/19 02:05:31;;;;;;;8.85;1.00;;;24.30;99.90;;;;;;4956727;29;20236;-78
2023/04/19 02:08:04;;;;;;;5.13;0.75;;;24.30;99.90;;;;;;4956302;28;20201;-79
2023/04/19 02:10:35;;;;;;;4.43;0.73;;;24.40;99.90;;;;;;4956142;29;20212;-80
2023/04/19 02:13:06;;;;;;;5.10;0.80;;;24.50;99.90;;;;;;4955292;29;20197;-80
2023/04/19 02:15:38;;;;;;;3.28;0.50;;;24.50;99.90;;;;;;4950685;28;20201;-79
2023/04/19 02:18:10;;;;;;;6.68;1.00;;;24.60;99.90;;;;;;4956179;29;20200;-79
2023/04/19 02:20:41;;;;;;;5.82;1.05;;;24.60;99.90;;;;;;4952081;29;20196;-80
2023/04/19 02:23:15;;;;;;;3.72;0.75;;;24.60;99.90;;;;;;4953094;29;20204;-78
2023/04/19 02:25:46;;;;;;;3.22;0.70;;;24.70;99.90;;;;;;4953010;29;20217;-78
2023/04/19 02:28:17;;;;;;;4.43;0.85;;;24.70;99.90;;;;;;4954613;29;20200;-79
2023/04/19 02:30:48;;;;;;;6.57;0.80;;;24.80;99.90;;;;;;4952465;29;20197;-79
2023/04/19 02:33:19;;;;;;;4.75;0.70;;;24.80;99.90;;;;;;4953464;29;20205;-78
2023/04/19 02:35:51;;;;;;;6.57;0.82;;;24.80;99.90;;;;;;4954182;29;20575;-78
2023/04/19 02:38:24;;;;;;;7.93;0.95;;;24.90;99.90;;;;;;4953224;28;20563;-78
2023/04/19 02:40:55;;;;;;;5.43;1.10;;;24.90;99.90;;;;;;4951448;29;20211;-79
2023/04/19 02:43:26;;;;;;;4.60;0.80;;;24.80;99.90;;;;;;4949517;29;20208;-79
2023/04/19 02:45:57;;;;;;;4.22;0.75;;;24.80;99.90;;;;;;4956095;29;20231;-79
2023/04/19 02:48:28;;;;;;;3.38;0.70;;;24.80;99.90;;;;;;4949004;28;20201;-81
2023/04/19 02:50:59;;;;;;;3.10;0.90;;;24.80;99.90;;;;;;4951884;29;20201;-79
2023/04/19 02:53:32;;;;;;;4.03;0.77;;;24.80;99.90;;;;;;4952377;29;20216;-79
2023/04/19 02:56:03;;;;;;;5.70;0.60;;;24.90;99.90;;;;;;4944411;29;20205;-79
2023/04/19 02:58:34;;;;;;;3.97;0.82;;;24.90;99.90;;;;;;4953394;29;20201;-79
2023/04/19 03:01:06;;;;;;;3.28;0.70;;;25.00;99.90;;;;;;4949306;29;20231;-79
2023/04/19 03:03:37;;;;;;;3.42;0.70;;;25.00;99.90;;;;;;4954401;28;20232;-79
2023/04/19 03:06:08;;;;;;;3.60;0.73;;;25.10;99.90;;;;;;4953130;29;20221;-80
2023/04/19 03:08:41;;;;;;;2.58;0.60;;;25.00;99.90;;;;;;4950497;29;20575;-80
2023/04/19 03:11:13;;;;;;;4.50;0.75;;;25.10;99.90;;;;;;4952721;29;20209;-78
2023/04/19 03:13:44;;;;;;;3.95;1.10;;;25.10;99.90;;;;;;4950819;28;20200;-76
2023/04/19 03:16:15;;;;;;;5.38;2.20;;;25.10;99.90;;;;;;4952290;29;20205;-78
2023/04/19 03:18:46;;;;;;;3.00;0.88;;;25.00;99.90;;;;;;4954122;29;20208;-77
2023/04/19 03:21:17;;;;;;;4.70;0.68;;;24.90;99.90;;;;;;4950322;29;20205;-79
2023/04/19 03:23:50;;;;;;;4.88;0.88;;;24.80;99.90;;;;;;4954025;29;20209;-79
2023/04/19 03:26:21;;;;;;;7.50;2.72;;;24.80;99.90;;;;;;4953171;29;20216;-79
2023/04/19 03:28:52;;;;;;;4.22;0.93;;;24.80;99.90;;;;;;4952612;28;20205;-79
2023/04/19 03:31:23;;;;;;;3.80;0.70;;;24.80;99.90;;;;;;4953628;28;20244;-79
2023/04/19 03:33:54;;;;;;;2.85;0.63;;;24.80;99.90;;;;;;4949341;29;20207;-80
2023/04/19 03:36:26;;;;;;;5.03;0.82;;;24.80;99.90;;;;;;4950814;29;20205;-80
2023/04/19 03:38:59;;;;;;;3.13;0.80;;;24.70;99.90;;;;;;4950567;29;20197;-80
2023/04/19 03:41:30;;;;;;;4.65;0.70;;;24.70;99.90;;;;;;4952467;29;20204;-79
2023/04/19 03:44:01;;;;;;;2.63;0.70;;;24.70;99.90;;;;;;4952914;28;20212;-78
2023/04/19 03:46:32;;;;;;;3.35;0.80;;;24.80;99.90;;;;;;4953050;29;20720;-79
2023/04/19 03:49:03;;;;;;;2.58;0.60;;;24.90;99.90;;;;;;4955447;29;20201;-79
2023/04/19 03:51:34;;;;;;;6.35;1.10;;;24.80;99.90;;;;;;4951654;29;20568;-80
2023/04/19 03:54:07;;;;;;;6.50;1.10;;;24.80;99.90;;;;;;4955855;29;20232;-79
2023/04/19 03:56:38;;;;;;;3.65;0.85;;;24.80;99.90;;;;;;4947180;29;20209;-80
2023/04/19 03:59:10;;;;;;;3.78;1.00;;;24.80;99.90;;;;;;4951307;29;20219;-79
2023/04/19 04:01:42;;;;;;;6.75;0.90;;;24.70;99.90;;;;;;4942759;29;20241;-79
2023/04/19 04:04:13;;;;;;;3.75;0.90;;;24.80;99.90;;;;;;4952372;28;20228;-79
2023/04/19 04:06:44;;;;;;;4.82;0.80;;;24.70;99.90;;;;;;4954323;29;20592;-80
2023/04/19 04:09:17;;;;;;;4.95;0.85;;;24.70;99.90;;;;;;4944325;29;20200;-79
2023/04/19 04:11:48;;;;;;;3.72;0.85;;;24.80;99.90;;;;;;4949379;29;20208;-79
2023/04/19 04:14:19;;;;;;;4.35;1.05;;;24.60;99.90;;;;;;4950290;29;20201;-80
2023/04/19 04:16:50;;;;;;;5.75;1.00;;;24.40;99.90;;;;;;4954440;29;20200;-79
2023/04/19 04:19:21;;;;;;;4.82;1.20;;;24.20;99.90;;;;;;4948464;29;20201;-79
2023/04/19 04:21:52;;;;;;;7.60;1.23;;;24.00;99.90;;;;;;4953753;28;20657;-79
2023/04/19 04:24:26;;;;;;;5.28;1.10;;;23.90;99.90;;;;;;4952956;29;20575;-79
2023/04/19 04:26:59;;;;;;;6.03;1.20;;;23.80;99.90;;;;;;4953742;29;20212;-79
2023/04/19 04:29:30;;;;;;;9.52;1.40;;;23.70;99.90;;;;;;4950289;29;20215;-80
2023/04/19 04:32:01;;;;;;;9.02;1.50;;;23.60;99.90;;;;;;4941755;29;20201;-79
2023/04/19 04:34:32;;;;;;;8.07;1.20;;;23.40;99.90;;;;;;4950456;28;20204;-78
2023/04/19 04:37:03;;;;;;;9.43;1.48;;;23.50;99.90;;;;;;4953091;29;20197;-80
2023/04/19 04:39:38;;;;;;;7.00;1.40;;;23.60;99.90;;;;;;4952696;28;20204;-78
2023/04/19 04:42:09;;;;;;;11.52;1.55;;;23.70;99.90;;;;;;4947024;29;20567;-78
2023/04/19 04:44:40;;;;;;;4.35;1.20;;;23.80;99.90;;;;;;4939392;29;20200;-78
2023/04/19 04:47:12;;;;;;;6.13;1.42;;;23.80;99.90;;;;;;4954398;29;20704;-79
2023/04/19 04:49:43;;;;;;;8.20;1.20;;;23.90;99.90;;;;;;4954030;29;20201;-78
2023/04/19 04:52:14;;;;;;;7.90;1.10;;;24.00;99.90;;;;;;4955336;29;20193;-79
2023/04/19 04:54:47;;;;;;;8.63;1.30;;;23.80;99.90;;;;;;4953720;29;20201;-78
2023/04/19 04:57:18;;;;;;;9.25;1.50;;;23.80;99.90;;;;;;4948012;29;20200;-79
2023/04/19 04:59:49;;;;;;;6.22;1.20;;;23.80;99.90;;;;;;4955318;28;20201;-79
2023/04/19 05:02:21;;;;;;;8.48;1.10;;;23.80;99.90;;;;;;4953641;28;20232;-78
2023/04/19 05:04:52;;;;;;;6.35;1.40;;;23.80;99.90;;;;;;4950252;29;20256;-78
2023/04/19 05:07:23;;;;;;;5.53;1.20;;;23.80;99.90;;;;;;4955029;28;20216;-78
2023/04/19 05:09:56;;;;;;;5.90;1.27;;;23.80;99.90;;;;;;4953279;28;20208;-79
2023/04/19 05:12:27;;;;;;;5.45;1.27;;;23.70;99.90;;;;;;4951131;29;20256;-79
2023/04/19 05:14:58;;;;;;;7.65;1.30;;;23.60;99.90;;;;;;4935671;29;20208;-79
2023/04/19 05:17:29;;;;;;;6.47;1.27;;;23.60;99.90;;;;;;4953635;29;20232;-78
2023/04/19 05:20:00;;;;;;;5.85;1.10;;;23.60;99.90;;;;;;4953964;28;20206;-78
2023/04/19 05:22:31;;;;;;;5.22;1.00;;;23.50;99.90;;;;;;4954229;28;20584;-79
2023/04/19 05:25:04;;;;;;;7.32;1.45;;;23.40;99.90;;;;;;4951435;29;20197;-78
2023/04/19 05:27:35;;;;;;;7.30;1.23;;;23.40;99.90;;;;;;4951656;29;20221;-78
2023/04/19 05:30:08;;;;;;;6.97;1.40;;;23.30;99.90;;;;;;4954876;29;20193;-79
2023/04/19 05:32:39;;;;;;;8.23;1.38;;;23.40;99.90;;;;;;4954606;28;20550;-79
2023/04/19 05:35:10;;;;;;;7.32;1.38;;;23.30;99.90;;;;;;4939396;29;20216;-78
2023/04/19 05:37:42;;;;;;;9.35;1.40;;;23.30;99.90;;;;;;4948300;29;20189;-77
2023/04/19 05:40:15;;;;;;;11.20;1.77;;;23.30;99.90;;;;;;4954828;28;20193;-79
2023/04/19 05:42:46;;;;;;;9.02;1.00;;;23.30;99.90;;;;;;4954438;29;20650;-80
2023/04/19 05:45:17;;;;;;;9.02;1.73;;;23.20;99.90;;;;;;4949536;29;20669;-77
2023/04/19 05:47:48;;;;;;;6.15;1.33;;;23.10;99.90;;;;;;4954001;29;20584;-79
2023/04/19 05:50:19;;;;;;;7.13;1.50;;;23.00;99.90;;;;;;4944153;28;20573;-78
2023/04/19 05:52:51;;;;;;;9.55;1.92;;;23.10;99.90;;;;;;4952506;29;20203;-78
2023/04/19 05:55:24;;;;;;;12.30;1.50;;;23.00;99.90;;;;;;4956847;28;20208;-78
2023/04/19 05:57:55;;;;;;;6.20;1.30;;;22.90;99.90;;;;;;4957106;28;20205;-78
2023/04/19 06:00:26;;;;;;;10.30;1.20;;;22.90;99.90;;;;;;4957616;29;20197;-78
2023/04/19 06:02:57;;;;;;;9.00;1.33;;;22.80;99.90;;;;;;4956675;29;20328;-78
2023/04/19 06:05:28;;;;;;;7.25;1.42;;;22.80;99.90;;;;;;4953389;29;20217;-79
2023/04/19 06:07:59;;;;;;;5.97;1.40;;;22.80;99.90;;;;;;4957585;29;20225;-78
2023/04/19 06:10:32;;;;;;;6.43;1.40;;;22.80;99.90;;;;;;4957410;29;20200;-79
2023/04/19 06:13:03;;;;;;;11.98;1.20;;;22.70;99.90;;;;;;4943148;29;20193;-78
2023/04/19 06:15:34;;;;;;;8.68;1.40;;;22.70;99.90;;;;;;4956842;29;20189;-78
2023/04/19 06:18:08;;;;;;;7.38;1.33;;;22.60;99.90;;;;;;4957048;29;20197;-78
2023/04/19 06:20:40;;;;;;;8.20;1.23;;;22.50;99.90;;;;;;4957531;29;20196;-78
2023/04/19 06:23:11;;;;;;;4.47;1.13;;;22.50;99.90;;;;;;4957916;28;20204;-77
2023/04/19 06:25:44;;;;;;;5.05;1.10;;;22.50;99.90;;;;;;4957515;28;20215;-78
2023/04/19 06:28:15;;;;;;;7.97;1.77;;;22.50;99.90;;;;;;4957071;29;20228;-78
2023/04/19 06:30:46;;;;;;;8.88;1.25;;;22.50;99.90;;;;;;4957839;29;20200;-78
2023/04/19 06:33:17;;;;;;;9.20;1.60;;;22.50;99.90;;;;;;4957198;29;20200;-78
2023/04/19 06:35:48;;;;;;;4.00;1.35;;;22.50;99.90;;;;;;4957499;28;20652;-78
2023/04/19 06:38:19;;;;;;;9.63;1.25;;;22.40;99.90;;;;;;4953232;28;20649;-78
2023/04/19 06:40:52;;;;;;;10.52;1.13;;;22.40;99.90;;;;;;4938077;29;20198;-76
2023/04/19 06:43:24;;;;;;;10.32;1.15;;;22.30;99.90;;;;;;4956835;29;20198;-76
2023/04/19 06:46:01;;;;;;;7.60;1.40;;;22.30;99.90;;;;;;4956903;28;20557;-77
2023/04/19 06:48:32;;;;;;;5.35;1.33;;;22.30;99.90;;;;;;4956802;29;20213;-76
2023/04/19 06:51:06;;;;;;;8.55;1.55;;;22.30;99.90;;;;;;4954891;29;20196;-76
2023/04/19 06:53:37;;;;;;;8.90;1.25;;;22.30;99.90;;;;;;4953292;29;20197;-78
2023/04/19 06:56:12;;;;;;;7.70;1.17;;;22.10;99.90;;;;;;4958332;28;20271;-79
2023/04/19 06:58:43;;;;;;;5.47;1.15;;;22.10;99.90;;;;;;4953374;29;20207;-80
2023/04/19 07:01:14;;;;;;;5.15;1.08;;;22.00;99.90;;;;;;4952745;28;20247;-78
2023/04/19 07:03:47;;;;;;;8.38;1.30;;;22.00;99.90;;;;;;4950812;28;20780;-79
2023/04/19 07:06:18;;;;;;;6.93;1.00;;;22.00;99.90;;;;;;4954119;28;20201;-79
2023/04/19 07:08:50;;;;;;;3.70;0.93;;;22.00;99.90;;;;;;4949022;28;20692;-79
2023/04/19 07:11:23;;;;;;;7.82;1.25;;;21.90;99.90;;;;;;4950391;29;20197;-76
2023/04/19 07:13:54;;;;;;;6.20;1.00;;;21.90;99.90;;;;;;4949275;29;20620;-77
2023/04/19 07:16:26;;;;;;;7.22;1.10;;;21.80;99.90;;;;;;4954442;29;20313;-79
2023/04/19 07:18:57;;;;;;;5.15;0.90;;;21.80;99.90;;;;;;4956014;28;20728;-79
2023/04/19 07:21:32;;;;;;;3.97;0.93;;;21.70;99.90;;;;;;4955757;28;20201;-77
2023/04/19 07:24:03;;;;;;;5.28;1.00;;;21.60;99.90;;;;;;4955692;29;20671;-77
2023/04/19 07:26:36;;;;;;;7.65;1.00;;;21.50;99.90;;;;;;4956122;29;20683;-77
2023/04/19 07:29:07;;;;;;;8.30;1.35;;;21.50;99.90;;;;;;4956483;28;20217;-78
2023/04/19 07:31:38;;;;;;;4.75;1.30;;;21.50;99.90;;;;;;4952276;28;20200;-78
2023/04/19 07:34:09;;;;;;;8.07;1.20;;;21.40;99.90;;;;;;4955538;28;20208;-78
2023/04/19 07:36:40;;;;;;;5.78;1.63;;;21.40;99.90;;;;;;4955860;29;20193;-77
2023/04/19 07:39:12;;;;;;;3.40;1.00;;;21.30;99.90;;;;;;4944752;29;20204;-78
2023/04/19 07:41:45;;;;;;;4.30;1.13;;;21.30;99.90;;;;;;4954097;29;20219;-77
2023/04/19 07:44:16;;;;;;;10.35;1.23;;;21.30;99.90;;;;;;4951625;28;20201;-77
2023/04/19 07:46:47;;;;;;;6.03;1.20;;;21.20;99.90;;;;;;4951045;29;20201;-77
2023/04/19 07:49:19;;;;;;;4.38;0.90;;;21.10;99.90;;;;;;4952062;29;20223;-77
2023/04/19 07:51:50;;;;;;;7.60;1.02;;;21.10;99.90;;;;;;4953034;28;20205;-77
2023/04/19 07:54:21;;;;;;;5.90;1.10;;;21.10;99.90;;;;;;4955894;28;20197;-77
2023/04/19 07:56:54;;;;;;;6.90;1.25;;;21.10;99.90;;;;;;4955992;28;20189;-77
2023/04/19 07:59:25;;;;;;;4.13;0.85;;;21.00;99.90;;;;;;4955719;28;20220;-78
2023/04/19 08:01:56;;;;;;;5.82;1.08;;;21.00;99.90;;;;;;4949378;28;20337;-78
2023/04/19 08:04:27;;;;;;;5.32;1.00;;;21.00;99.90;;;;;;4950292;28;20221;-78
2023/04/19 08:06:58;;;;;;;5.50;1.17;;;21.00;99.90;;;;;;4953791;29;20197;-78
2023/04/19 08:09:29;;;;;;;4.78;0.95;;;21.00;99.90;;;;;;4954804;29;20711;-78
2023/04/19 08:12:02;;;;;;;8.50;1.25;;;21.00;99.90;;;;;;4949959;28;20197;-78
2023/04/19 08:14:33;;;;;;;2.88;0.65;;;20.90;99.90;;;;;;4953241;28;20212;-78
2023/04/19 08:17:04;;;;;;;7.47;0.90;;;20.90;99.90;;;;;;4952311;29;20200;-78
2023/04/19 08:19:36;;;;;;;5.13;1.08;;;20.90;99.90;;;;;;4951063;29;20205;-78
2023/04/19 08:22:07;;;;;;;5.50;1.00;;;20.90;99.90;;;;;;4951237;29;20252;-78
2023/04/19 08:24:38;;;;;;;6.75;1.25;;;20.90;99.90;;;;;;4952737;28;20201;-77
2023/04/19 08:27:11;;;;;;;5.30;1.23;;;20.80;99.90;;;;;;4953994;28;20200;-77
2023/04/19 08:29:42;;;;;;;2.67;1.02;;;20.80;99.90;;;;;;4948355;28;20220;-78
2023/04/19 08:32:13;;;;;;;4.63;1.00;;;20.80;99.90;;;;;;4947832;29;20204;-77
2023/04/19 08:34:46;;;;;;;5.90;1.30;;;20.80;99.90;;;;;;4952921;28;20209;-77
2023/04/19 08:37:18;;;;;;;5.25;1.30;;;20.80;99.90;;;;;;4952824;28;20260;-78
2023/04/19 08:39:51;;;;;;;6.40;1.20;;;20.70;99.90;;;;;;4951982;29;20201;-78
2023/04/19 08:42:25;;;;;;;5.45;1.35;;;20.70;99.90;;;;;;4951254;28;20208;-77
2023/04/19 08:45:01;;;;;;;7.28;0.95;;;20.70;99.90;;;;;;4953571;28;20204;-78
2023/04/19 08:47:36;;;;;;;8.50;1.30;;;20.70;99.90;;;;;;4955181;29;20208;-78
2023/04/19 08:50:10;;;;;;;4.50;0.93;;;20.70;99.90;;;;;;4950915;28;20204;-78
2023/04/19 08:52:43;;;;;;;4.28;1.00;;;20.60;99.90;;;;;;4955232;28;20204;-78
2023/04/19 08:55:14;;;;;;;7.40;1.40;;;20.60;99.90;;;;;;4950972;29;20201;-77
2023/04/19 08:57:47;;;;;;;6.05;1.20;;;20.60;99.90;;;;;;4951274;28;20205;-77
2023/04/19 09:00:19;;;;;;;6.05;1.30;;;20.60;99.90;;;;;;4954977;29;20197;-77
2023/04/19 09:02:53;;;;;;;5.50;1.20;;;20.60;99.90;;;;;;4952405;28;20334;-78
2023/04/19 09:05:24;;;;;;;5.55;1.10;;;20.60;99.90;;;;;;4953073;29;20205;-78
2023/04/19 09:07:55;;;;;;;5.75;1.27;;;20.50;99.90;;;;;;4952629;29;20216;-78
2023/04/19 09:10:26;;;;;;;3.97;0.90;;;20.50;99.90;;;;;;4953837;28;20205;-78
2023/04/19 09:13:06;;;;;;;6.15;1.00;;;20.50;99.90;;;;;;4945731;28;20208;-77
2023/04/19 09:15:43;;;;;;;9.52;1.17;;;20.50;99.90;;;;;;4945488;29;20196;-78
2023/04/19 09:18:14;;;;;;;4.07;0.85;;;20.50;99.90;;;;;;4951899;28;20201;-78
2023/04/19 09:20:46;;;;;;;3.13;0.88;;;20.50;99.90;;;;;;4951394;28;20205;-78
2023/04/19 09:23:20;;;;;;;5.60;0.93;;;20.50;99.90;;;;;;4953830;28;20204;-78
2023/04/19 09:25:59;;;;;;;5.43;1.23;;;20.50;99.90;;;;;;4952498;28;20568;-77
2023/04/19 09:28:34;;;;;;;4.40;0.93;;;20.50;99.90;;;;;;4956587;29;20256;-77
2023/04/19 09:31:16;;;;;;;3.92;1.08;;;20.40;99.90;;;;;;4951706;28;20200;-77
2023/04/19 09:33:47;;;;;;;6.20;1.33;;;20.40;99.90;;;;;;4956575;28;20197;-77
2023/04/19 09:36:30;;;;;;;9.05;1.42;;;20.40;99.90;;;;;;4957014;29;20232;-77
2023/04/19 09:39:03;;;;;;;6.15;1.45;;;20.40;99.90;;;;;;4952245;29;20201;-77
2023/04/19 09:41:36;;;;;;;7.10;1.67;;;20.30;99.90;;;;;;4956373;28;20212;-77
2023/04/19 09:44:16;;;;;;;4.68;1.38;;;20.30;99.90;;;;;;4953325;29;20207;-77
2023/04/19 09:46:50;;;;;;;6.80;1.55;;;20.30;99.90;;;;;;4956942;28;20689;-77
2023/04/19 09:49:22;;;;;;;6.10;1.58;;;20.20;99.90;;;;;;4949887;28;20217;-77
2023/04/19 09:51:55;;;;;;;4.50;1.30;;;20.20;99.90;;;;;;4951705;28;20697;-77
2023/04/19 09:54:27;;;;;;;6.45;1.27;;;20.20;99.90;;;;;;4957339;28;20201;-77
2023/04/19 09:56:58;;;;;;;9.27;1.55;;;20.20;99.90;;;;;;4957712;28;20339;-77
2023/04/19 09:59:33;;;;;;;4.35;1.17;;;20.20;99.90;;;;;;4956293;28;20197;-77
2023/04/19 10:02:07;;;;;;;6.18;1.58;;;20.20;99.90;;;;;;4954840;28;20236;-77
2023/04/19 10:04:40;;;;;;;4.60;1.35;;;20.20;99.90;;;;;;4956718;28;20204;-77
2023/04/19 10:07:12;;;;;;;6.63;1.60;;;20.10;99.90;;;;;;4956229;29;20649;-77
2023/04/19 10:09:43;;;;;;;4.72;1.60;;;20.10;99.90;;;;;;4955458;28;20228;-77
2023/04/19 10:12:16;;;;;;;6.85;1.58;;;20.10;99.90;;;;;;4952819;28;20201;-77
2023/04/19 10:14:50;;;;;;;12.35;1.73;;;20.10;99.90;;;;;;4953412;29;20680;-77
2023/04/19 10:17:21;;;;;;;12.60;1.77;;;20.00;99.90;;;;;;4956669;29;20536;-77
2023/04/19 10:19:58;;;;;;;6.63;1.75;;;20.00;99.90;;;;;;4956803;28;20220;-76
2023/04/19 10:22:30;;;;;;;6.68;1.58;;;20.00;99.90;;;;;;4957718;28;20207;-77
2023/04/19 10:25:17;;;;;;;6.28;1.75;;;20.00;99.90;;;;;;4956277;29;20538;-77
2023/04/19 10:27:50;;;;;;;6.57;1.83;;;19.90;99.90;;;;;;4951921;29;20197;-77
2023/04/19 10:30:25;;;;;;;6.47;1.70;;;19.90;99.90;;;;;;4951142;28;20260;-77
2023/04/19 10:32:59;;;;;;;8.05;1.92;;;19.90;99.90;;;;;;4953109;28;20247;-77
2023/04/19 10:35:37;;;;;;;9.60;2.05;;;19.80;99.90;;;;;;4953636;29;20202;-77
2023/04/19 10:38:18;;;;;;;5.88;2.17;;;19.80;99.90;;;;;;4956338;28;20207;-77
2023/04/19 10:41:02;;;;;;;11.55;2.08;;;19.80;99.90;;;;;;4951393;29;20201;-76
2023/04/19 10:43:35;;;;;;;10.48;2.00;;;19.80;99.90;;;;;;4957152;28;20255;-76
2023/04/19 10:46:10;;;;;;;8.02;1.90;;;19.80;99.90;;;;;;4954255;29;20204;-77
2023/04/19 10:48:57;;;;;;;8.02;1.85;;;19.80;99.90;;;;;;4954389;28;20217;-76
2023/04/19 10:51:31;;;;;;;12.18;2.00;;;19.70;99.90;;;;;;4951541;28;20196;-77
2023/04/19 10:54:03;;;;;;;10.18;2.10;;;19.70;99.90;;;;;;4951451;28;20211;-77
2023/04/19 10:57:03;;;;;;;6.20;1.75;;;19.70;99.90;;;;;;4954752;28;20209;-76
2023/04/19 10:59:35;;;;;;;6.13;1.88;;;19.70;99.90;;;;;;4955443;29;20197;-77
2023/04/19 11:02:31;;;;;;;7.35;1.50;;;19.60;99.90;;;;;;4953228;29;20240;-77
2023/04/19 11:05:04;;;;;;;10.32;1.90;;;19.60;99.90;;;;;;4944163;29;20256;-76
2023/04/19 11:07:45;;;;;;;7.03;1.55;;;19.60;99.90;;;;;;4954013;28;20292;-77
2023/04/19 11:10:29;;;;;;;6.22;1.70;;;19.60;99.90;;;;;;4954787;29;20315;-77
2023/04/19 11:13:00;;;;;;;6.88;1.80;;;19.60;99.90;;;;;;4952872;28;20225;-77
2023/04/19 11:15:31;;;;;;;7.20;2.20;;;19.60;99.90;;;;;;4953261;28;20214;-77
2023/04/19 11:18:04;;;;;;;8.10;2.22;;;19.50;99.90;;;;;;4950904;28;20205;-78
2023/04/19 11:20:35;;;;;;;7.13;2.20;;;19.50;99.90;;;;;;4956674;28;20193;-77
2023/04/19 11:23:17;;;;;;;11.93;2.30;;;19.40;99.90;;;;;;4956186;29;20193;-77
2023/04/19 11:25:52;;;;;;;7.93;2.60;;;19.40;99.90;;;;;;4936558;29;20253;-77
2023/04/19 11:28:24;;;;;;;10.07;2.35;;;19.40;99.90;;;;;;4951733;28;20322;-77
2023/04/19 11:30:55;;;;;;;9.23;2.20;;;19.40;99.90;;;;;;4955050;28;20803;-77
2023/04/19 11:33:28;;;;;;;11.80;2.30;;;19.40;99.90;;;;;;4954149;29;20208;-77
2023/04/19 11:36:00;;;;;;;11.35;2.13;;;19.40;99.90;;;;;;4944556;29;20189;-77
2023/04/19 11:38:31;;;;;;;9.40;1.92;;;19.30;99.90;;;;;;4955944;28;20201;-77
2023/04/19 11:41:04;;;;;;;9.32;2.22;;;19.30;99.90;;;;;;4939842;29;20209;-77
2023/04/19 11:43:39;;;;;;;7.30;2.15;;;19.30;99.90;;;;;;4936717;29;20638;-77
2023/04/19 11:46:10;;;;;;;8.00;2.05;;;19.20;99.90;;;;;;4939703;29;20279;-77
2023/04/19 11:48:53;;;;;;;5.72;2.00;;;19.20;99.90;;;;;;4939388;29;20688;-77
2023/04/19 11:51:25;;;;;;;8.38;2.25;;;19.20;99.90;;;;;;4953168;29;20201;-77
2023/04/19 11:53:56;;;;;;;7.07;2.10;;;19.20;99.90;;;;;;4953163;29;20228;-77
2023/04/19 11:56:27;;;;;;;6.03;2.20;;;19.20;99.90;;;;;;4954650;29;20205;-78
2023/04/19 11:59:00;;;;;;;9.23;2.38;;;19.20;99.90;;;;;;4943498;29;20630;-77
2023/04/19 12:01:32;;;;;;;8.23;2.20;;;19.20;99.90;;;;;;4954640;29;20251;-77
2023/04/19 12:04:07;;;;;;;7.40;2.60;;;19.10;99.90;;;;;;4954332;29;20689;-77
2023/04/19 12:06:38;;;;;;;6.60;2.05;;;19.10;99.90;;;;;;4948331;28;20198;-77
2023/04/19 12:09:11;;;;;;;9.43;2.42;;;19.10;99.90;;;;;;4950686;29;20213;-77
2023/04/19 12:11:50;;;;;;;9.63;2.17;;;19.10;99.90;;;;;;4953324;29;20204;-77
2023/04/19 12:14:22;;;;;;;7.68;2.30;;;19.10;99.90;;;;;;4953699;28;20560;-77
2023/04/19 12:17:12;;;;;;;6.00;2.38;;;19.10;99.90;;;;;;4952732;28;20204;-76
2023/04/19 12:19:49;;;;;;;7.00;2.20;;;19.10;99.90;;;;;;4953365;29;20267;-76
2023/04/19 12:22:22;;;;;;;8.38;2.13;;;19.00;99.90;;;;;;4954337;28;20200;-77
2023/04/19 12:24:55;;;;;;;8.80;2.20;;;19.00;99.90;;;;;;4951301;29;20205;-76
2023/04/19 12:27:26;;;;;;;6.72;2.00;;;19.00;99.90;;;;;;4944203;29;20212;-76
2023/04/19 12:29:57;;;;;;;6.22;2.20;;;19.00;99.90;;;;;;4948668;29;20225;-77
2023/04/19 12:32:28;;;;;;;5.47;1.83;;;19.00;99.90;;;;;;4951310;29;20200;-77
2023/04/19 12:35:01;;;;;;;9.38;2.30;;;19.00;99.90;;;;;;4954278;29;20197;-77
2023/04/19 12:37:33;;;;;;;6.07;1.90;;;19.00;99.90;;;;;;4953669;29;20201;-77
2023/04/19 12:40:05;;;;;;;9.38;2.10;;;19.10;99.90;;;;;;4948884;28;20201;-76
2023/04/19 12:42:36;;;;;;;8.05;1.80;;;19.10;99.90;;;;;;4954866;29;20201;-77
2023/04/19 12:45:07;;;;;;;8.63;1.88;;;19.10;99.90;;;;;;4950013;29;20212;-76
2023/04/19 12:47:38;;;;;;;7.70;2.03;;;19.20;99.90;;;;;;4951687;29;20689;-76
2023/04/19 12:50:12;;;;;;;6.95;1.85;;;19.20;99.90;;;;;;4953809;29;20228;-77
2023/04/19 12:52:43;;;;;;;8.70;2.10;;;19.20;99.90;;;;;;4952926;28;20205;-77
2023/04/19 12:55:14;;;;;;;6.78;1.98;;;19.20;99.90;;;;;;4952012;29;20672;-77
2023/04/19 12:57:46;;;;;;;6.55;1.83;;;19.20;99.90;;;;;;4954419;29;20211;-76
2023/04/19 13:00:18;;;;;;;5.25;1.80;;;19.20;99.90;;;;;;4952338;28;20207;-77
2023/04/19 13:02:50;;;;;;;8.57;2.22;;;19.20;99.90;;;;;;4954110;28;20236;-76
2023/04/19 13:05:25;;;;;;;8.23;1.98;;;19.20;99.90;;;;;;4953082;28;20212;-76
2023/04/19 13:07:56;;;;;;;10.50;2.08;;;19.20;99.90;;;;;;4954160;29;20208;-77
2023/04/19 13:10:27;;;;;;;7.85;2.30;;;19.30;99.90;;;;;;4953100;29;20236;-76
2023/04/19 13:12:59;;;;;;;10.40;2.30;;;19.30;99.90;;;;;;4952516;28;20580;-76